createdAt,value
2023-05-08T00:00:33.211Z,7.45
2023-05-08T00:03:00.328Z,8.20
2023-05-08T00:05:27.272Z,7.35
2023-05-08T00:08:01.312Z,6.32
2023-05-08T00:10:29.189Z,7.62
2023-05-08T00:12:56.497Z,8.00
2023-05-08T00:15:23.367Z,7.78
2023-05-08T00:17:50.287Z,7.53
2023-05-08T00:20:17.180Z,8.18
2023-05-08T00:22:44.055Z,7.95
2023-05-08T00:25:10.976Z,8.38
2023-05-08T00:27:37.886Z,7.90
2023-05-08T00:30:05.858Z,8.32
2023-05-08T00:32:32.733Z,6.45
2023-05-08T00:34:59.649Z,7.62
2023-05-08T00:37:26.496Z,7.00
2023-05-08T00:39:53.314Z,7.97
2023-05-08T00:44:46.936Z,7.75
2023-05-08T00:47:13.828Z,7.70
2023-05-08T00:49:40.932Z,7.68
2023-05-08T00:52:11.214Z,7.75
2023-05-08T00:54:38.578Z,7.37
2023-05-08T00:57:08.788Z,7.95
2023-05-08T00:59:36.827Z,8.20
2023-05-08T01:02:04.295Z,8.15
2023-05-08T01:04:32.039Z,7.70
2023-05-08T01:06:58.925Z,7.53
2023-05-08T01:09:25.987Z,7.90
2023-05-08T01:12:18.205Z,8.35
2023-05-08T01:14:58.751Z,7.95
2023-05-08T01:17:51.102Z,7.70
2023-05-08T01:21:03.193Z,7.35
2023-05-08T01:23:42.119Z,7.20
2023-05-08T01:26:11.608Z,7.28
2023-05-08T01:29:00.822Z,7.28
2023-05-08T01:32:04.910Z,7.20
2023-05-08T01:34:33.394Z,7.95
2023-05-08T01:37:04.106Z,7.47
2023-05-08T01:39:40.204Z,8.20
2023-05-08T01:42:36.068Z,7.37
2023-05-08T01:45:13.122Z,7.12
2023-05-08T01:47:41.497Z,8.20
2023-05-08T01:50:22.525Z,7.72
2023-05-08T01:52:52.017Z,7.40
2023-05-08T01:55:27.871Z,7.10
2023-05-08T01:57:55.548Z,7.70
2023-05-08T02:00:24.525Z,7.18
2023-05-08T02:02:52.871Z,7.65
2023-05-08T02:05:21.712Z,8.02
2023-05-08T02:07:49.840Z,7.37
2023-05-08T02:10:17.726Z,7.70
2023-05-08T02:12:45.218Z,7.30
2023-05-08T02:15:14.180Z,7.22
2023-05-08T02:17:41.896Z,7.37
2023-05-08T02:20:14.969Z,7.60
2023-05-08T02:22:46.555Z,7.75
2023-05-08T02:25:14.873Z,8.23
2023-05-08T02:27:47.016Z,8.18
2023-05-08T02:30:15.933Z,7.60
2023-05-08T02:32:44.059Z,7.90
2023-05-08T02:35:20.483Z,8.00
2023-05-08T02:37:51.435Z,7.53
2023-05-08T02:40:18.981Z,7.80
2023-05-08T02:42:47.035Z,8.27
2023-05-08T02:45:14.834Z,7.97
2023-05-08T02:48:02.269Z,9.00
2023-05-08T02:50:59.461Z,7.97
2023-05-08T02:53:41.247Z,7.40
2023-05-08T02:56:15.280Z,8.10
2023-05-08T02:58:49.002Z,8.32
2023-05-08T03:01:27.254Z,8.10
2023-05-08T03:04:01.685Z,8.48
2023-05-08T03:06:35.580Z,7.37
2023-05-08T03:09:04.150Z,8.43
2023-05-08T03:11:37.407Z,7.85
2023-05-08T03:14:06.530Z,7.78
2023-05-08T03:16:35.456Z,8.45
2023-05-08T03:19:06.003Z,7.90
2023-05-08T03:21:32.883Z,7.90
2023-05-08T03:24:01.257Z,7.57
2023-05-08T03:26:28.264Z,8.70
2023-05-08T03:28:56.970Z,8.65
2023-05-08T03:31:24.553Z,7.82
2023-05-08T03:33:53.613Z,8.77
2023-05-08T03:36:21.530Z,8.75
2023-05-08T03:38:48.785Z,8.80
2023-05-08T03:41:15.651Z,8.73
2023-05-08T03:43:42.602Z,8.55
2023-05-08T03:46:10.517Z,8.85
2023-05-08T03:48:37.975Z,8.63
2023-05-08T03:51:05.495Z,9.20
2023-05-08T03:53:33.376Z,9.27
2023-05-08T03:56:00.883Z,8.75
2023-05-08T03:58:45.057Z,8.45
2023-05-08T04:01:26.152Z,8.50
2023-05-08T04:04:15.172Z,9.10
2023-05-08T04:06:51.349Z,8.45
2023-05-08T04:09:28.418Z,9.07
2023-05-08T04:12:05.933Z,8.35
2023-05-08T04:14:38.327Z,8.32
2023-05-08T04:17:08.142Z,8.35
2023-05-08T04:19:39.520Z,8.70
2023-05-08T04:22:07.918Z,7.57
2023-05-08T04:24:37.931Z,8.05
2023-05-08T04:27:05.214Z,7.62
2023-05-08T04:29:32.760Z,7.00
2023-05-08T04:32:01.243Z,7.50
2023-05-08T04:34:29.319Z,8.20
2023-05-08T04:36:56.574Z,7.68
2023-05-08T04:39:23.408Z,8.20
2023-05-08T04:41:52.587Z,7.28
2023-05-08T04:44:19.487Z,7.32
2023-05-08T04:46:46.339Z,7.90
2023-05-08T04:49:13.188Z,7.97
2023-05-08T04:51:40.052Z,7.55
2023-05-08T04:54:06.896Z,7.10
2023-05-08T04:56:33.782Z,6.87
2023-05-08T04:59:00.647Z,7.28
2023-05-08T05:01:27.535Z,7.12
2023-05-08T05:03:54.433Z,6.72
2023-05-08T05:06:21.334Z,6.95
2023-05-08T05:08:48.173Z,6.30
2023-05-08T05:11:15.019Z,6.97
2023-05-08T05:13:41.868Z,6.60
2023-05-08T05:16:08.801Z,7.15
2023-05-08T05:18:36.029Z,6.37
2023-05-08T05:21:03.850Z,6.22
2023-05-08T05:23:30.732Z,6.45
2023-05-08T05:25:57.672Z,6.57
2023-05-08T05:28:24.520Z,6.62
2023-05-08T05:30:52.027Z,5.68
2023-05-08T05:33:18.946Z,6.50
2023-05-08T05:35:45.804Z,5.95
2023-05-08T05:38:12.681Z,5.65
2023-05-08T05:40:39.560Z,5.53
2023-05-08T05:43:06.417Z,5.85
2023-05-08T05:45:33.782Z,6.45
2023-05-08T05:48:00.766Z,6.40
2023-05-08T05:50:27.856Z,6.82
2023-05-08T05:52:57.510Z,6.22
2023-05-08T05:55:24.503Z,6.05
2023-05-08T05:57:51.388Z,6.22
2023-05-08T06:00:18.598Z,6.30
2023-05-08T06:02:45.778Z,6.43
2023-05-08T06:05:13.133Z,6.12
2023-05-08T06:07:40.209Z,5.57
2023-05-08T06:10:07.764Z,6.25
2023-05-08T06:12:34.905Z,5.60
2023-05-08T06:15:01.780Z,5.65
2023-05-08T06:17:28.623Z,5.65
2023-05-08T06:19:56.155Z,5.80
2023-05-08T06:22:24.470Z,5.90
2023-05-08T06:24:54.560Z,5.28
2023-05-08T06:27:22.526Z,5.53
2023-05-08T06:29:53.178Z,5.40
2023-05-08T06:32:20.874Z,6.25
2023-05-08T06:34:48.146Z,5.50
2023-05-08T06:37:15.103Z,5.43
2023-05-08T06:39:42.019Z,4.87
2023-05-08T06:42:09.117Z,4.80
2023-05-08T06:44:36.292Z,4.90
2023-05-08T06:47:03.357Z,5.43
2023-05-08T06:49:30.783Z,5.43
2023-05-08T06:51:58.191Z,4.90
2023-05-08T06:54:25.514Z,4.78
2023-05-08T06:56:54.201Z,5.20
2023-05-08T06:59:23.351Z,4.80
2023-05-08T07:01:50.733Z,5.62
2023-05-08T07:04:17.679Z,5.30
2023-05-08T07:06:44.563Z,4.87
2023-05-08T07:09:12.066Z,4.87
2023-05-08T07:11:38.965Z,4.82
2023-05-08T07:14:05.804Z,4.90
2023-05-08T07:16:32.794Z,5.03
2023-05-08T07:18:59.835Z,5.18
2023-05-08T07:21:26.646Z,5.30
2023-05-08T07:23:54.831Z,4.87
2023-05-08T07:26:22.724Z,4.82
2023-05-08T07:28:51.053Z,4.72
2023-05-08T07:31:18.005Z,4.55
2023-05-08T07:33:44.989Z,5.18
2023-05-08T07:36:11.996Z,5.22
2023-05-08T07:38:38.927Z,4.82
2023-05-08T07:41:05.852Z,5.12
2023-05-08T07:43:32.949Z,5.07
2023-05-08T07:45:59.890Z,5.00
2023-05-08T07:48:27.017Z,5.20
2023-05-08T07:50:53.878Z,5.10
2023-05-08T07:53:20.752Z,5.47
2023-05-08T07:55:47.909Z,4.93
2023-05-08T07:58:23.801Z,5.90
2023-05-08T08:00:50.945Z,4.60
2023-05-08T08:03:17.921Z,4.40
2023-05-08T08:05:44.926Z,5.10
2023-05-08T08:08:11.945Z,5.43
2023-05-08T08:10:39.765Z,4.53
2023-05-08T08:13:06.958Z,4.20
2023-05-08T08:15:33.892Z,5.00
2023-05-08T08:18:00.857Z,4.32
2023-05-08T08:20:27.748Z,4.85
2023-05-08T08:22:54.686Z,5.57
2023-05-08T08:25:24.567Z,5.28
2023-05-08T08:27:51.570Z,5.18
2023-05-08T08:30:18.957Z,5.60
2023-05-08T08:35:19.958Z,5.72
2023-05-08T08:37:46.960Z,5.12
2023-05-08T08:40:13.995Z,5.72
2023-05-08T08:42:41.134Z,5.00
2023-05-08T08:45:08.822Z,5.32
2023-05-08T08:47:41.596Z,5.97
2023-05-08T08:50:12.043Z,5.93
2023-05-08T08:52:43.444Z,5.55
2023-05-08T08:55:13.273Z,5.03
2023-05-08T08:58:06.545Z,6.10
2023-05-08T09:00:33.481Z,4.82
2023-05-08T09:03:00.833Z,5.32
2023-05-08T09:05:28.136Z,4.70
2023-05-08T09:07:55.886Z,5.45
2023-05-08T09:10:24.511Z,5.47
2023-05-08T09:12:53.983Z,4.80
2023-05-08T09:15:21.085Z,6.75
2023-05-08T09:17:48.002Z,4.78
2023-05-08T09:20:16.264Z,5.10
2023-05-08T09:22:43.823Z,4.82
2023-05-08T09:25:11.231Z,5.15
2023-05-08T09:27:38.571Z,6.07
2023-05-08T09:30:07.614Z,4.93
2023-05-08T09:32:36.639Z,4.32
2023-05-08T09:35:04.903Z,6.07
2023-05-08T09:37:32.142Z,4.95
2023-05-08T09:40:20.071Z,4.72
2023-05-08T09:42:50.308Z,5.68
2023-05-08T09:45:35.466Z,5.03
2023-05-08T09:48:02.590Z,4.60
2023-05-08T09:50:29.596Z,5.87
2023-05-08T09:52:56.595Z,5.15
2023-05-08T09:55:23.447Z,5.30
2023-05-08T09:57:54.311Z,4.62
2023-05-08T10:00:21.643Z,6.22
2023-05-08T10:02:59.956Z,4.87
2023-05-08T10:05:32.487Z,4.12
2023-05-08T10:08:18.544Z,5.12
2023-05-08T10:10:45.457Z,4.95
2023-05-08T10:13:12.422Z,5.87
2023-05-08T10:15:44.489Z,5.70
2023-05-08T10:18:14.869Z,5.20
2023-05-08T10:20:44.536Z,5.18
2023-05-08T10:23:15.322Z,5.05
2023-05-08T10:25:49.528Z,5.15
2023-05-08T10:28:35.482Z,4.90
2023-05-08T10:31:03.913Z,4.50
2023-05-08T10:33:34.384Z,5.32
2023-05-08T10:36:01.794Z,4.70
2023-05-08T10:38:28.772Z,4.75
2023-05-08T10:40:58.310Z,4.70
2023-05-08T10:43:26.118Z,4.80
2023-05-08T10:45:57.170Z,4.80
2023-05-08T10:48:45.826Z,5.07
2023-05-08T10:51:41.016Z,4.95
2023-05-08T10:54:24.871Z,5.18
2023-05-08T10:56:51.817Z,4.45
2023-05-08T10:59:20.035Z,4.72
2023-05-08T11:01:50.835Z,4.50
2023-05-08T11:04:22.560Z,4.72
2023-05-08T11:06:53.095Z,4.30
2023-05-08T11:09:41.951Z,4.47
2023-05-08T11:12:24.425Z,5.20
2023-05-08T11:15:10.339Z,5.30
2023-05-08T11:17:37.263Z,4.62
2023-05-08T11:20:07.139Z,4.90
2023-05-08T11:22:38.329Z,5.07
2023-05-08T11:25:10.020Z,4.65
2023-05-08T11:27:49.902Z,4.75
2023-05-08T11:30:36.765Z,4.90
2023-05-08T11:33:09.406Z,5.05
2023-05-08T11:35:44.818Z,4.53
2023-05-08T11:38:36.140Z,4.50
2023-05-08T11:41:21.800Z,4.78
2023-05-08T11:44:10.840Z,4.85
2023-05-08T11:46:39.521Z,4.35
2023-05-08T11:49:14.606Z,3.78
2023-05-08T11:51:45.078Z,4.47
2023-05-08T11:54:19.526Z,4.47
2023-05-08T12:02:43.911Z,3.80
2023-05-08T12:05:11.604Z,4.30
2023-05-08T12:07:46.849Z,4.50
2023-05-08T12:10:17.728Z,3.92
2023-05-08T12:12:45.547Z,4.47
2023-05-08T12:18:17.785Z,4.03
2023-05-08T12:20:54.644Z,4.37
2023-05-08T12:29:08.715Z,4.55
2023-05-08T12:31:42.605Z,4.60
2023-05-08T12:37:12.255Z,4.50
2023-05-08T12:39:45.932Z,3.78
2023-05-08T12:42:12.957Z,4.35
2023-05-08T12:44:39.859Z,3.87
2023-05-08T12:47:06.917Z,4.00
2023-05-08T12:49:33.768Z,3.85
2023-05-08T12:52:05.548Z,4.40
2023-05-08T12:54:49.480Z,7.47
2023-05-08T12:57:17.911Z,4.57
2023-05-08T12:59:46.204Z,4.15
2023-05-08T13:02:18.398Z,4.05
2023-05-08T13:04:45.991Z,4.00
2023-05-08T13:07:12.955Z,4.18
2023-05-08T13:09:40.256Z,3.90
2023-05-08T13:12:07.422Z,3.70
2023-05-08T13:14:34.318Z,3.95
2023-05-08T13:17:01.392Z,3.83
2023-05-08T13:19:28.374Z,3.62
2023-05-08T13:21:55.255Z,3.80
2023-05-08T13:24:22.089Z,3.78
2023-05-08T13:26:48.956Z,4.22
2023-05-08T13:29:15.821Z,4.35
2023-05-08T13:31:42.697Z,4.10
2023-05-08T13:34:10.205Z,3.83
2023-05-08T13:36:37.172Z,3.53
2023-05-08T13:39:04.295Z,3.80
2023-05-08T13:41:31.257Z,3.90
2023-05-08T13:43:58.122Z,4.07
2023-05-08T13:46:25.396Z,3.85
2023-05-08T13:48:52.296Z,4.07
2023-05-08T13:51:19.193Z,3.90
2023-05-08T13:53:46.024Z,4.10
2023-05-08T13:56:12.997Z,4.18
2023-05-08T13:58:40.428Z,4.12
2023-05-08T14:01:21.745Z,3.60
2023-05-08T14:03:52.336Z,3.83
2023-05-08T14:06:20.638Z,3.87
2023-05-08T14:08:50.424Z,3.50
2023-05-08T14:11:18.500Z,3.50
2023-05-08T14:13:45.371Z,3.90
2023-05-08T14:16:14.518Z,3.87
2023-05-08T14:18:41.491Z,4.05
2023-05-08T14:21:08.343Z,3.70
2023-05-08T14:23:36.141Z,3.33
2023-05-08T14:26:03.098Z,3.53
2023-05-08T14:28:29.989Z,3.50
2023-05-08T14:30:56.882Z,3.70
2023-05-08T14:33:23.837Z,3.55
2023-05-08T14:35:50.697Z,3.97
2023-05-08T14:38:17.564Z,4.22
2023-05-08T14:40:44.377Z,3.55
2023-05-08T14:43:11.212Z,3.67
2023-05-08T14:45:38.073Z,4.18
2023-05-08T14:48:05.361Z,3.72
2023-05-08T14:50:32.228Z,4.10
2023-05-08T14:52:59.182Z,4.50
2023-05-08T14:55:26.549Z,4.68
2023-05-08T14:57:53.508Z,4.10
2023-05-08T15:00:21.515Z,4.15
2023-05-08T15:02:48.914Z,3.92
2023-05-08T15:05:19.903Z,3.70
2023-05-08T15:10:14.185Z,4.00
2023-05-08T15:12:41.128Z,3.95
2023-05-08T15:15:08.376Z,3.97
2023-05-08T15:17:36.627Z,4.22
2023-05-08T15:20:04.501Z,3.42
2023-05-08T15:22:31.557Z,3.17
2023-05-08T15:25:02.593Z,3.75
2023-05-08T15:27:30.065Z,3.33
2023-05-08T15:29:57.115Z,3.45
2023-05-08T15:32:24.833Z,3.28
2023-05-08T15:34:51.719Z,3.75
2023-05-08T15:37:18.586Z,3.17
2023-05-08T15:39:45.547Z,3.03
2023-05-08T15:42:12.366Z,3.40
2023-05-08T15:47:08.956Z,3.30
2023-05-08T15:49:35.788Z,2.72
2023-05-08T15:52:02.663Z,2.90
2023-05-08T15:54:29.532Z,2.67
2023-05-08T15:56:56.369Z,2.80
2023-05-08T15:59:23.770Z,2.90
2023-05-08T16:01:51.510Z,2.40
2023-05-08T16:04:19.134Z,3.03
2023-05-08T16:06:45.990Z,3.65
2023-05-08T16:09:12.855Z,2.92
2023-05-08T16:11:39.696Z,3.35
2023-05-08T16:14:06.539Z,2.90
2023-05-08T16:16:33.493Z,2.90
2023-05-08T16:19:00.453Z,2.70
2023-05-08T16:21:27.805Z,3.03
2023-05-08T16:23:54.653Z,3.10
2023-05-08T16:26:22.579Z,2.75
2023-05-08T16:28:49.649Z,2.80
2023-05-08T16:31:17.212Z,3.00
2023-05-08T16:33:44.184Z,3.00
2023-05-08T16:36:11.062Z,3.30
2023-05-08T16:38:37.946Z,3.03
2023-05-08T16:41:05.868Z,3.05
2023-05-08T16:43:33.186Z,2.85
2023-05-08T16:46:00.073Z,3.05
2023-05-08T16:48:28.184Z,2.87
2023-05-08T16:50:55.904Z,2.92
2023-05-08T16:53:22.810Z,3.28
2023-05-08T16:55:49.648Z,2.97
2023-05-08T16:58:16.522Z,2.83
2023-05-08T17:00:45.644Z,2.87
2023-05-08T17:03:12.543Z,3.25
2023-05-08T17:05:39.419Z,3.47
2023-05-08T17:08:06.305Z,3.53
2023-05-08T17:10:33.117Z,4.05
2023-05-08T17:13:00.019Z,3.87
2023-05-08T17:15:26.921Z,4.50
2023-05-08T17:17:53.908Z,4.25
2023-05-08T17:20:21.016Z,4.50
2023-05-08T17:22:47.877Z,3.58
2023-05-08T17:25:14.757Z,4.00
2023-05-08T17:27:41.652Z,4.20
2023-05-08T17:30:12.236Z,4.40
2023-05-08T17:32:39.530Z,3.87
2023-05-08T17:35:06.979Z,3.75
2023-05-08T17:37:33.862Z,3.83
2023-05-08T17:40:00.695Z,3.70
2023-05-08T17:42:27.592Z,3.20
2023-05-08T17:44:54.437Z,3.58
2023-05-08T17:47:21.443Z,3.30
2023-05-08T17:49:48.309Z,3.10
2023-05-08T17:52:15.699Z,3.65
2023-05-08T17:54:42.586Z,4.03
2023-05-08T17:57:09.485Z,3.60
2023-05-08T17:59:36.300Z,3.75
2023-05-08T18:02:03.289Z,3.25
2023-05-08T18:04:30.192Z,3.20
2023-05-08T18:06:57.036Z,4.07
2023-05-08T18:09:23.861Z,3.80
2023-05-08T18:11:50.742Z,3.78
2023-05-08T18:14:17.554Z,3.50
2023-05-08T18:16:44.451Z,3.30
2023-05-08T18:19:11.977Z,3.42
2023-05-08T18:21:38.842Z,3.35
2023-05-08T18:24:06.152Z,3.70
2023-05-08T18:26:33.042Z,3.60
2023-05-08T18:28:59.984Z,3.37
2023-05-08T18:31:26.900Z,3.40
2023-05-08T18:33:53.825Z,3.70
2023-05-08T18:36:20.688Z,3.97
2023-05-08T18:38:47.536Z,3.83
2023-05-08T18:41:14.426Z,3.97
2023-05-08T18:43:44.911Z,3.62
2023-05-08T18:46:12.761Z,4.05
2023-05-08T18:48:42.943Z,3.78
2023-05-08T18:51:10.354Z,3.70
2023-05-08T18:53:38.593Z,2.65
2023-05-08T18:56:05.852Z,2.00
2023-05-08T18:58:32.835Z,1.75
2023-05-08T19:00:59.761Z,2.08
2023-05-08T19:03:27.048Z,1.95
2023-05-08T19:05:57.117Z,1.90
2023-05-08T19:08:24.265Z,1.83
2023-05-08T19:10:51.111Z,2.37
2023-05-08T19:13:17.940Z,1.85
2023-05-08T19:15:44.853Z,2.12
2023-05-08T19:18:12.839Z,2.22
2023-05-08T19:20:39.723Z,2.22
2023-05-08T19:23:06.562Z,2.28
2023-05-08T19:25:33.413Z,2.10
2023-05-08T19:28:00.309Z,2.35
2023-05-08T19:30:27.180Z,2.30
2023-05-08T19:32:54.034Z,2.30
2023-05-08T19:35:21.384Z,2.35
2023-05-08T19:37:48.256Z,2.10
2023-05-08T19:40:16.541Z,1.98
2023-05-08T19:42:46.644Z,1.87
2023-05-08T19:45:13.639Z,2.10
2023-05-08T19:47:40.549Z,1.85
2023-05-08T19:50:08.002Z,1.62
2023-05-08T19:52:34.878Z,2.10
2023-05-08T19:55:01.740Z,2.25
2023-05-08T19:57:28.559Z,2.37
2023-05-08T19:59:56.125Z,2.10
2023-05-08T20:02:23.008Z,2.00
2023-05-08T20:05:14.311Z,2.40
2023-05-08T20:07:36.708Z,2.40
2023-05-08T20:10:03.760Z,2.62
2023-05-08T20:12:30.652Z,1.90
2023-05-08T20:14:57.501Z,1.98
2023-05-08T20:17:24.399Z,2.50
2023-05-08T20:19:51.298Z,2.42
2023-05-08T20:22:18.399Z,2.33
2023-05-08T20:24:45.223Z,2.55
2023-05-08T20:29:38.728Z,2.50
2023-05-08T20:32:07.426Z,1.95
2023-05-08T20:34:34.671Z,2.45
2023-05-08T20:37:03.865Z,2.20
2023-05-08T20:39:30.764Z,2.90
2023-05-08T20:41:57.620Z,2.83
2023-05-08T20:44:24.582Z,2.70
2023-05-08T20:46:51.977Z,2.33
2023-05-08T20:49:18.843Z,2.33
2023-05-08T20:51:45.756Z,2.53
2023-05-08T20:54:12.581Z,3.47
2023-05-08T20:59:06.181Z,2.67
2023-05-08T21:01:33.068Z,2.40
2023-05-08T21:03:59.904Z,2.47
2023-05-08T21:08:53.471Z,2.30
2023-05-08T21:11:21.299Z,1.62
2023-05-08T21:13:48.260Z,2.83
2023-05-08T21:16:15.129Z,3.10
2023-05-08T21:18:42.130Z,2.25
2023-05-08T21:21:20.065Z,2.70
2023-05-08T21:23:46.910Z,2.95
2023-05-08T21:26:13.843Z,2.70
2023-05-08T21:28:40.944Z,3.10
2023-05-08T21:31:07.873Z,2.72
2023-05-08T21:33:35.125Z,2.90
2023-05-08T21:36:02.082Z,2.67
2023-05-08T21:38:30.097Z,2.40
2023-05-08T21:40:57.114Z,3.10
2023-05-08T21:43:23.989Z,2.97
2023-05-08T21:45:50.859Z,2.80
2023-05-08T21:48:17.718Z,2.72
2023-05-08T21:50:44.536Z,2.85
2023-05-08T21:55:38.128Z,3.00
2023-05-08T21:58:05.072Z,2.75
2023-05-08T22:00:31.917Z,3.30
2023-05-08T22:05:25.539Z,2.75
2023-05-08T22:07:52.417Z,2.70
2023-05-08T22:10:21.510Z,3.05
2023-05-08T22:12:48.931Z,2.90
2023-05-08T22:15:28.563Z,2.97
2023-05-08T22:17:57.031Z,3.50
2023-05-08T22:20:24.005Z,3.30
2023-05-08T22:22:50.940Z,3.10
2023-05-08T22:25:17.846Z,3.25
2023-05-08T22:27:45.538Z,2.80
2023-05-08T22:30:12.727Z,2.83
2023-05-08T22:32:39.747Z,2.97
2023-05-08T22:35:07.027Z,2.85
2023-05-08T22:37:33.877Z,3.03
2023-05-08T22:40:00.762Z,3.30
2023-05-08T22:42:27.648Z,3.17
2023-05-08T22:44:54.529Z,3.20
2023-05-08T22:47:21.399Z,3.17
2023-05-08T22:49:48.940Z,3.30
2023-05-08T22:52:17.183Z,2.92
2023-05-08T22:54:44.061Z,3.00
2023-05-08T22:57:10.905Z,3.47
2023-05-08T22:59:37.820Z,2.83
2023-05-08T23:02:04.676Z,3.10
2023-05-08T23:06:58.243Z,3.45
2023-05-08T23:11:51.841Z,3.15
2023-05-08T23:14:18.722Z,2.37
2023-05-08T23:16:46.264Z,3.15
2023-05-08T23:19:13.189Z,3.28
2023-05-08T23:21:40.027Z,3.40
2023-05-08T23:26:33.659Z,3.15
2023-05-08T23:29:00.833Z,3.20
2023-05-08T23:31:27.873Z,3.40
2023-05-08T23:33:54.732Z,3.47
2023-05-08T23:36:22.101Z,3.37
2023-05-08T23:38:49.001Z,3.35
2023-05-08T23:41:15.880Z,3.50
2023-05-08T23:43:42.680Z,3.35
2023-05-08T23:48:36.873Z,3.78
2023-05-08T23:51:03.860Z,3.30
2023-05-08T23:53:30.740Z,3.40
2023-05-08T23:55:57.877Z,3.67
2023-05-08T23:58:24.748Z,3.37
